Time;durP1;ratioP1;P1;durP2;ratioP2;P2;SDS_P1;SDS_P2;PMS_P1;PMS_P2;Temp;Humidity;BMP_temperature;BMP_pressure;BME280_temperature;BME280_humidity;BME280_pressure;Samples;Min_cycle;Max_cycle;Signal;HPM_P1;HPM_P2
2023/08/28 00:02:09;;;;;;;2.97;2.60;;;;;;;17.10;74.38;95832.38;5086628;28;20512;-68
2023/08/28 00:04:34;;;;;;;3.07;2.67;;;;;;;17.13;73.67;95829.47;5087217;28;20256;-69
2023/08/28 00:07:00;;;;;;;3.20;2.80;;;;;;;17.12;73.75;95819.81;5087636;28;20561;-72
2023/08/28 00:09:25;;;;;;;5.30;3.40;;;;;;;17.07;73.63;95815.84;5087065;28;20173;-69
2023/08/28 00:11:54;;;;;;;4.47;3.20;;;;;;;17.16;73.49;95806.31;5087410;28;20729;-71
2023/08/28 00:14:20;;;;;;;6.83;2.77;;;;;;;17.10;73.65;95795.25;5087535;28;20165;-71
2023/08/28 00:16:45;;;;;;;5.50;3.03;;;;;;;17.22;73.56;95788.13;5087296;28;20771;-71
2023/08/28 00:19:11;;;;;;;6.93;2.83;;;;;;;17.11;73.43;95770.41;5087014;28;20177;-69
2023/08/28 00:21:36;;;;;;;6.50;3.20;;;;;;;17.09;73.53;95766.19;5087475;28;20270;-71
2023/08/28 00:24:02;;;;;;;4.73;3.40;;;;;;;17.17;73.36;95761.13;5087585;28;20201;-71
2023/08/28 00:26:28;;;;;;;3.77;3.03;;;;;;;17.18;73.29;95762.81;5087682;28;20194;-70
2023/08/28 00:28:53;;;;;;;4.57;3.40;;;;;;;17.18;73.49;95767.28;5087297;28;20177;-69
2023/08/28 00:31:19;;;;;;;4.13;3.67;;;;;;;17.20;73.39;95766.19;5087364;28;20552;-70
2023/08/28 00:33:44;;;;;;;8.57;3.00;;;;;;;17.08;74.10;95770.66;5087839;28;20166;-71
2023/08/28 00:36:09;;;;;;;4.00;2.60;;;;;;;17.13;74.39;95791.50;5091577;28;20560;-70
2023/08/28 00:38:35;;;;;;;4.70;2.23;;;;;;;17.05;74.96;95793.91;5091599;28;20173;-72
2023/08/28 00:41:00;;;;;;;3.83;3.40;;;;;;;17.04;74.65;95789.59;5091461;28;20200;-71
2023/08/28 00:43:25;;;;;;;3.50;2.90;;;;;;;17.10;73.98;95803.19;5094856;28;20203;-71
2023/08/28 00:45:51;;;;;;;4.53;3.17;;;;;;;17.18;73.75;95799.09;5095828;28;20676;-70
2023/08/28 00:48:20;;;;;;;3.87;3.47;;;;;;;17.13;73.92;95800.31;5096691;28;20599;-71
2023/08/28 00:50:47;;;;;;;3.27;2.63;;;;;;;17.17;73.99;95805.34;5095995;28;20201;-70
2023/08/28 00:53:12;;;;;;;4.10;3.40;;;;;;;17.14;73.64;95809.09;5094401;28;20545;-70
2023/08/28 00:55:40;;;;;;;4.33;3.47;;;;;;;17.10;74.53;95805.00;5091923;28;20897;-69
2023/08/28 00:58:05;;;;;;;7.77;4.10;;;;;;;17.18;73.92;95812.34;5091117;28;20177;-71
2023/08/28 01:00:30;;;;;;;4.73;3.27;;;;;;;17.17;74.02;95808.84;5090633;28;20762;-70
2023/08/28 01:02:56;;;;;;;4.57;3.70;;;;;;;17.16;73.42;95807.16;5091138;28;20244;-69
2023/08/28 01:05:32;;;;;;;5.90;3.67;;;;;;;17.29;73.36;95805.22;5090883;28;20170;-70
2023/08/28 01:08:25;;;;;;;6.83;3.70;;;;;;;17.13;74.01;95816.22;5090596;28;20531;-70
2023/08/28 01:10:58;;;;;;;5.17;3.47;;;;;;;17.14;73.88;95817.88;5090374;28;21027;-69
2023/08/28 01:13:37;;;;;;;3.60;2.70;;;;;;;17.19;73.57;95816.69;5090703;28;20415;-70
2023/08/28 01:16:04;;;;;;;9.50;3.93;;;;;;;17.15;73.97;95816.09;5090650;28;20508;-68
2023/08/28 01:18:31;;;;;;;6.80;3.40;;;;;;;17.09;74.54;95812.09;5090395;28;20502;-70
2023/08/28 01:20:59;;;;;;;5.40;3.10;;;;;;;17.01;75.11;95811.88;5090249;28;20487;-70
2023/08/28 01:23:58;;;;;;;8.40;3.47;;;;;;;16.95;75.27;95814.16;5090358;28;20545;-70
2023/08/28 01:26:24;;;;;;;4.10;3.30;;;;;;;16.59;75.94;95814.22;5090413;28;20502;-70
2023/08/28 01:28:50;;;;;;;2.97;2.67;;;;;;;16.49;76.21;95810.63;5089936;28;20422;-70
2023/08/28 01:31:16;;;;;;;4.47;2.90;;;;;;;16.60;75.74;95807.97;5090110;28;20526;-70
2023/08/28 01:33:41;;;;;;;3.40;3.10;;;;;;;16.37;76.99;95807.09;5090209;28;20495;-71
2023/08/28 01:36:17;;;;;;;4.10;3.30;;;;;;;16.51;76.74;95809.53;5090183;28;20544;-70
2023/08/28 01:39:08;;;;;;;4.60;3.30;;;;;;;16.68;76.11;95804.75;5089938;28;20181;-71
2023/08/28 01:41:34;;;;;;;3.37;2.83;;;;;;;16.67;76.49;95801.22;5089940;28;20518;-70
2023/08/28 01:44:01;;;;;;;5.50;3.27;;;;;;;16.80;76.11;95798.50;5089894;28;20485;-70
2023/08/28 01:46:31;;;;;;;9.83;3.60;;;;;;;16.74;76.39;95788.34;5089734;28;20184;-71
2023/08/28 01:48:57;;;;;;;4.63;3.10;;;;;;;16.69;76.47;95788.72;5089555;28;20416;-70
2023/08/28 01:51:23;;;;;;;3.43;3.07;;;;;;;16.75;76.83;95782.09;5089642;28;20603;-71
2023/08/28 01:53:48;;;;;;;6.27;2.87;;;;;;;16.72;76.57;95775.25;5089817;28;20203;-69
2023/08/28 01:56:19;;;;;;;3.83;3.40;;;;;;;16.64;76.45;95767.03;5089631;28;20411;-70
2023/08/28 01:58:45;;;;;;;5.20;3.53;;;;;;;16.74;75.47;95764.50;5089471;28;20174;-71
2023/08/28 02:01:11;;;;;;;4.73;2.80;;;;;;;16.70;75.44;95758.63;5089577;28;20461;-71
2023/08/28 02:03:38;;;;;;;8.80;3.50;;;;;;;16.75;75.59;95746.78;5089997;28;20455;-70
2023/08/28 02:06:04;;;;;;;3.10;2.43;;;;;;;16.68;74.92;95755.25;5090040;28;20251;-69
2023/08/28 02:08:29;;;;;;;8.90;2.73;;;;;;;16.66;76.04;95746.56;5090134;28;20415;-71
2023/08/28 02:10:55;;;;;;;7.53;3.67;;;;;;;16.70;75.96;95742.72;5089364;28;20512;-70
2023/08/28 02:13:20;;;;;;;3.50;2.83;;;;;;;16.77;75.88;95739.56;5089660;28;20172;-70
2023/08/28 02:15:46;;;;;;;4.33;3.10;;;;;;;16.64;75.62;95737.91;5089536;28;20177;-72
2023/08/28 02:18:11;;;;;;;5.27;3.00;;;;;;;16.61;75.43;95734.66;5089278;28;20659;-70
2023/08/28 02:20:36;;;;;;;2.70;2.50;;;;;;;16.60;74.80;95725.84;5088824;28;20182;-69
2023/08/28 02:23:02;;;;;;;4.03;2.67;;;;;;;16.64;73.55;95734.41;5089250;28;20303;-71
2023/08/28 02:25:27;;;;;;;3.60;2.73;;;;;;;16.53;74.96;95735.25;5088968;28;20177;-70
2023/08/28 02:27:53;;;;;;;3.53;2.97;;;;;;;16.49;74.97;95732.00;5089103;28;20170;-70
2023/08/28 02:30:18;;;;;;;3.40;2.63;;;;;;;16.46;74.62;95726.09;5088614;28;20202;-71
2023/08/28 02:32:44;;;;;;;4.60;2.93;;;;;;;16.48;74.65;95722.34;5089084;28;20196;-70
2023/08/28 02:35:11;;;;;;;6.43;2.87;;;;;;;16.46;74.98;95718.13;5088922;28;20189;-71
2023/08/28 02:37:37;;;;;;;4.97;2.87;;;;;;;16.46;73.24;95707.53;5088854;28;20916;-71
2023/08/28 02:40:03;;;;;;;3.17;2.70;;;;;;;16.31;74.32;95712.25;5088723;28;20510;-72
2023/08/28 02:42:28;;;;;;;3.90;2.40;;;;;;;16.56;74.05;95703.22;5089067;28;20851;-71
2023/08/28 02:44:54;;;;;;;3.60;2.60;;;;;;;16.50;74.09;95695.75;5089295;28;20468;-70
2023/08/28 02:47:19;;;;;;;4.10;2.60;;;;;;;16.56;73.54;95690.00;5089293;28;20183;-70
2023/08/28 02:49:45;;;;;;;3.40;1.97;;;;;;;16.64;73.35;95684.91;5088656;28;20177;-71
2023/08/28 02:52:10;;;;;;;3.73;2.90;;;;;;;16.61;73.73;95687.81;5088918;28;20190;-71
2023/08/28 02:54:35;;;;;;;3.57;2.50;;;;;;;16.57;72.92;95688.19;5089172;28;20208;-69
2023/08/28 02:57:01;;;;;;;4.23;2.70;;;;;;;16.46;73.48;95692.53;5088138;28;20181;-71
2023/08/28 02:59:27;;;;;;;2.80;2.50;;;;;;;16.25;74.16;95694.19;5088284;28;20880;-70
2023/08/28 03:01:53;;;;;;;3.73;2.70;;;;;;;15.88;76.66;95697.88;5088894;28;20201;-70
2023/08/28 03:04:19;;;;;;;4.57;3.40;;;;;;;15.93;76.09;95694.03;5088548;28;20423;-71
2023/08/28 03:06:44;;;;;;;5.33;2.60;;;;;;;15.89;76.14;95696.06;5088474;28;20915;-71
2023/08/28 03:09:09;;;;;;;5.43;3.13;;;;;;;16.19;74.74;95692.03;5088059;28;20174;-70
2023/08/28 03:11:35;;;;;;;6.70;3.00;;;;;;;16.27;73.87;95687.78;5088552;28;20280;-71
2023/08/28 03:14:01;;;;;;;4.07;2.77;;;;;;;16.38;73.39;95694.06;5088304;28;20222;-71
2023/08/28 03:16:26;;;;;;;4.40;2.87;;;;;;;16.35;73.07;95699.63;5088190;28;20188;-71
2023/08/28 03:18:52;;;;;;;9.13;3.03;;;;;;;16.41;73.14;95699.97;5087802;28;20705;-71
2023/08/28 03:21:18;;;;;;;8.73;4.37;;;;;;;16.28;73.11;95701.91;5088026;28;20653;-71
2023/08/28 03:23:43;;;;;;;3.23;2.60;;;;;;;16.42;72.60;95703.47;5088116;28;20467;-70
2023/08/28 03:26:08;;;;;;;4.03;2.80;;;;;;;16.31;73.62;95701.66;5088070;28;20169;-70
2023/08/28 03:28:34;;;;;;;7.20;3.50;;;;;;;16.19;73.70;95716.69;5087931;28;20272;-71
2023/08/28 03:31:00;;;;;;;3.83;3.53;;;;;;;15.91;75.09;95714.47;5087682;28;20195;-71
2023/08/28 03:33:27;;;;;;;6.80;3.57;;;;;;;16.16;74.01;95709.00;5087951;28;20546;-70
2023/08/28 03:35:52;;;;;;;3.20;2.60;;;;;;;16.23;73.66;95707.56;5087818;28;20414;-71
2023/08/28 03:38:18;;;;;;;4.27;3.20;;;;;;;16.21;73.57;95714.75;5087755;28;20407;-70
2023/08/28 03:40:44;;;;;;;4.63;3.10;;;;;;;15.96;73.95;95720.25;5087534;28;20203;-70
2023/08/28 03:43:10;;;;;;;4.10;3.23;;;;;;;16.11;74.64;95718.22;5087892;28;20670;-70
2023/08/28 03:45:36;;;;;;;3.17;2.77;;;;;;;15.66;76.20;95718.91;5088310;28;20419;-70
2023/08/28 03:48:01;;;;;;;4.77;3.07;;;;;;;15.84;75.52;95720.22;5087993;28;20481;-71
2023/08/28 03:50:30;;;;;;;4.87;3.20;;;;;;;16.09;74.27;95713.06;5087492;28;20208;-71
2023/08/28 03:52:59;;;;;;;3.43;3.13;;;;;;;16.15;73.81;95720.53;5087892;28;20166;-71
2023/08/28 03:55:25;;;;;;;2.90;2.60;;;;;;;16.25;73.46;95726.81;5087861;28;20415;-71
2023/08/28 03:57:50;;;;;;;4.70;2.97;;;;;;;16.23;74.09;95720.78;5087846;28;20442;-71
2023/08/28 04:00:18;;;;;;;4.10;2.97;;;;;;;16.22;73.92;95710.31;5087654;28;20227;-70
2023/08/28 04:02:47;;;;;;;4.40;2.90;;;;;;;16.30;73.76;95711.41;5087363;28;20221;-70
2023/08/28 04:05:13;;;;;;;5.20;3.40;;;;;;;16.35;73.69;95697.81;5087254;28;20419;-71
2023/08/28 04:07:40;;;;;;;6.80;3.50;;;;;;;16.08;74.98;95698.97;5087257;28;20434;-70
2023/08/28 04:10:06;;;;;;;3.30;3.00;;;;;;;15.78;76.02;95691.59;5086999;28;20408;-71
2023/08/28 04:12:32;;;;;;;6.07;3.23;;;;;;;15.78;75.90;95707.47;5087242;28;20466;-70
2023/08/28 04:14:58;;;;;;;7.00;3.70;;;;;;;15.77;75.77;95697.84;5087348;28;20423;-71
2023/08/28 04:17:23;;;;;;;7.60;3.90;;;;;;;15.93;75.99;95694.03;5087333;28;20442;-69
2023/08/28 04:19:51;;;;;;;5.50;3.43;;;;;;;15.55;77.83;95695.09;5087614;28;20244;-70
2023/08/28 04:22:16;;;;;;;7.03;3.30;;;;;;;15.48;78.76;95688.59;5087464;28;20335;-70
2023/08/28 04:24:44;;;;;;;12.73;4.93;;;;;;;15.72;77.66;95686.75;5098254;28;20411;-70
2023/08/28 04:27:09;;;;;;;7.30;5.13;;;;;;;15.62;78.08;95691.03;5108088;28;20237;-71
2023/08/28 04:29:34;;;;;;;5.43;4.17;;;;;;;15.55;78.35;95689.81;5096143;28;20413;-71
2023/08/28 04:32:00;;;;;;;6.17;3.90;;;;;;;15.52;78.41;95692.66;5093778;28;20224;-70
2023/08/28 04:34:25;;;;;;;7.83;4.30;;;;;;;15.50;79.61;95691.97;5091246;28;20170;-69
2023/08/28 04:36:50;;;;;;;11.30;5.40;;;;;;;15.56;78.80;95680.91;5088273;28;20177;-67
2023/08/28 04:39:16;;;;;;;6.40;4.40;;;;;;;15.44;79.29;95678.22;5086991;28;20169;-70
2023/08/28 04:41:41;;;;;;;4.90;4.40;;;;;;;15.29;79.94;95667.97;5087189;28;20190;-70
2023/08/28 04:44:06;;;;;;;9.10;4.43;;;;;;;15.48;78.73;95662.97;5087181;28;20231;-70
2023/08/28 04:46:32;;;;;;;7.10;4.70;;;;;;;15.22;79.92;95672.84;5087222;28;20222;-70
2023/08/28 04:48:57;;;;;;;13.27;5.20;;;;;;;15.41;79.13;95681.09;5086931;28;20384;-69
2023/08/28 04:51:22;;;;;;;6.30;4.50;;;;;;;15.54;78.28;95675.72;5086886;28;20189;-71
2023/08/28 04:53:48;;;;;;;17.07;5.50;;;;;;;15.44;79.16;95670.28;5087018;28;20165;-70
2023/08/28 04:56:13;;;;;;;5.80;4.27;;;;;;;15.28;79.27;95677.66;5086904;28;20205;-70
2023/08/28 04:58:38;;;;;;;9.10;4.47;;;;;;;15.36;79.39;95680.59;5086926;28;20174;-70
2023/08/28 05:01:04;;;;;;;7.80;4.90;;;;;;;15.31;79.52;95669.53;5086649;28;20185;-70
2023/08/28 05:03:29;;;;;;;7.13;4.40;;;;;;;15.43;79.21;95687.13;5086858;28;20331;-70
2023/08/28 05:05:55;;;;;;;4.20;3.80;;;;;;;15.50;78.74;95679.59;5086966;28;20170;-70
2023/08/28 05:08:20;;;;;;;15.37;5.13;;;;;;;15.52;78.27;95675.03;5086905;28;20398;-70
2023/08/28 05:10:46;;;;;;;6.33;3.83;;;;;;;15.81;77.02;95680.78;5086638;28;20272;-70
2023/08/28 05:13:11;;;;;;;10.50;4.70;;;;;;;15.13;79.69;95678.81;5086872;28;20241;-70
2023/08/28 05:15:37;;;;;;;7.03;3.93;;;;;;;15.42;78.07;95681.94;5086648;28;20174;-70
2023/08/28 05:18:03;;;;;;;10.00;5.43;;;;;;;15.34;76.71;95677.22;5086228;28;20189;-70
2023/08/28 05:20:28;;;;;;;4.53;3.70;;;;;;;15.13;76.63;95666.44;5087916;28;20174;-72
2023/08/28 05:22:54;;;;;;;11.23;3.90;;;;;;;15.04;77.80;95672.41;5090640;28;20443;-70
2023/08/28 05:25:20;;;;;;;18.50;5.47;;;;;;;15.24;76.73;95678.88;5090741;28;20161;-70
2023/08/28 05:27:45;;;;;;;13.73;4.30;;;;;;;15.24;76.81;95681.53;5090671;28;20170;-70
2023/08/28 05:30:11;;;;;;;11.90;4.70;;;;;;;15.46;76.04;95684.25;5090365;28;20173;-70
2023/08/28 05:32:36;;;;;;;5.53;2.90;;;;;;;15.26;75.84;95669.03;5090631;28;20178;-69
2023/08/28 05:35:03;;;;;;;8.10;4.40;;;;;;;15.32;76.18;95673.84;5092753;28;20169;-69
2023/08/28 05:37:28;;;;;;;9.73;3.97;;;;;;;15.06;77.59;95673.13;5107041;28;20181;-68
2023/08/28 05:39:54;;;;;;;4.77;3.10;;;;;;;15.07;77.00;95669.56;5099006;28;20408;-69
2023/08/28 05:42:19;;;;;;;10.47;4.10;;;;;;;15.42;75.38;95663.44;5091102;28;20288;-69
2023/08/28 05:44:45;;;;;;;14.83;4.20;;;;;;;15.45;74.60;95663.22;5090762;28;20634;-70
2023/08/28 05:47:11;;;;;;;15.37;3.90;;;;;;;15.32;74.42;95668.56;5090450;28;20174;-69
2023/08/28 05:49:36;;;;;;;4.77;3.13;;;;;;;15.12;74.57;95672.69;5090512;28;20177;-71
2023/08/28 05:52:02;;;;;;;6.70;3.10;;;;;;;15.23;74.76;95666.59;5090508;28;20684;-71
2023/08/28 05:54:28;;;;;;;8.00;3.30;;;;;;;15.21;74.84;95656.16;5090654;28;20228;-69
2023/08/28 05:56:54;;;;;;;4.40;3.10;;;;;;;15.14;75.07;95644.38;5090559;28;20944;-70
2023/08/28 05:59:19;;;;;;;8.90;2.90;;;;;;;15.14;74.85;95649.66;5090170;28;20178;-69
2023/08/28 06:01:45;;;;;;;9.63;2.93;;;;;;;15.10;75.21;95636.78;5090526;28;20213;-70
2023/08/28 06:04:10;;;;;;;8.83;3.00;;;;;;;15.04;75.34;95625.69;5090587;28;20201;-70
2023/08/28 06:06:37;;;;;;;4.27;2.57;;;;;;;14.89;76.11;95624.19;5091189;28;20562;-71
2023/08/28 06:09:06;;;;;;;8.27;3.53;;;;;;;14.95;76.20;95621.09;5090570;28;20544;-72
2023/08/28 06:11:32;;;;;;;6.13;3.20;;;;;;;14.80;76.88;95615.13;5090573;28;20432;-69
2023/08/28 06:13:58;;;;;;;10.23;2.80;;;;;;;15.09;75.96;95601.56;5090263;28;20515;-72
2023/08/28 06:16:24;;;;;;;6.07;3.00;;;;;;;15.24;75.21;95595.13;5090078;28;20447;-68
2023/08/28 06:18:49;;;;;;;7.93;2.67;;;;;;;15.36;74.74;95596.00;5089844;28;20415;-69
2023/08/28 06:21:14;;;;;;;9.73;3.13;;;;;;;15.49;74.30;95597.72;5089919;28;20197;-70
2023/08/28 06:23:40;;;;;;;7.47;3.17;;;;;;;15.49;74.97;95597.72;5090020;28;20257;-72
2023/08/28 06:26:06;;;;;;;3.90;3.20;;;;;;;15.52;75.04;95586.91;5089453;28;20165;-72
2023/08/28 06:28:31;;;;;;;7.07;2.93;;;;;;;15.42;74.94;95574.38;5089501;28;20439;-71
2023/08/28 06:30:57;;;;;;;7.33;3.50;;;;;;;15.38;75.69;95546.50;5088824;28;20201;-72
2023/08/28 06:33:22;;;;;;;3.50;2.90;;;;;;;15.11;76.61;95544.16;5089140;28;20193;-71
2023/08/28 06:35:48;;;;;;;20.83;4.90;;;;;;;14.96;78.09;95551.44;5089953;28;20233;-71
2023/08/28 06:38:13;;;;;;;5.40;3.23;;;;;;;15.10;77.16;95554.84;5090266;28;20170;-70
2023/08/28 06:40:39;;;;;;;6.57;3.73;;;;;;;15.24;76.77;95552.84;5089359;28;20248;-70
2023/08/28 06:43:04;;;;;;;9.77;4.30;;;;;;;14.98;77.79;95552.16;5090059;28;20168;-72
2023/08/28 06:45:31;;;;;;;6.00;3.87;;;;;;;14.99;77.64;95553.00;5089645;28;20173;-72
2023/08/28 06:47:57;;;;;;;7.50;4.70;;;;;;;15.06;77.55;95551.59;5089549;28;20543;-72
2023/08/28 06:50:23;;;;;;;14.03;4.20;;;;;;;15.22;77.18;95556.56;5089216;28;20496;-70
2023/08/28 06:52:49;;;;;;;8.27;4.70;;;;;;;15.37;76.65;95565.97;5089914;28;20538;-69
2023/08/28 06:55:15;;;;;;;15.73;4.47;;;;;;;15.42;76.96;95577.03;5090314;28;20530;-71
2023/08/28 06:57:40;;;;;;;22.50;6.13;;;;;;;15.51;76.84;95590.50;5089774;28;20926;-71
2023/08/28 07:00:06;;;;;;;8.90;4.10;;;;;;;15.52;76.98;95600.13;5089445;28;20173;-71
2023/08/28 07:02:32;;;;;;;7.93;3.60;;;;;;;15.62;76.34;95603.75;5089508;28;20247;-72
2023/08/28 07:04:58;;;;;;;12.13;5.00;;;;;;;15.67;76.22;95606.88;5089044;28;20529;-71
2023/08/28 07:07:23;;;;;;;7.27;3.97;;;;;;;15.67;75.93;95604.25;5089591;28;20259;-69
2023/08/28 07:09:48;;;;;;;6.17;4.20;;;;;;;15.69;75.81;95599.69;5089086;28;20180;-69
2023/08/28 07:12:14;;;;;;;6.30;3.83;;;;;;;15.61;76.29;95594.13;5088854;28;20229;-69
2023/08/28 07:14:39;;;;;;;7.50;3.70;;;;;;;15.53;75.95;95588.59;5088798;28;20527;-70
2023/08/28 07:17:05;;;;;;;4.60;3.80;;;;;;;15.34;77.03;95582.06;5088417;28;20268;-70
2023/08/28 07:19:30;;;;;;;8.37;4.30;;;;;;;15.38;77.00;95586.16;5088368;28;20188;-70
2023/08/28 07:21:59;;;;;;;16.77;4.60;;;;;;;15.55;76.58;95560.25;5088426;28;20302;-70
2023/08/28 07:24:25;;;;;;;4.77;4.30;;;;;;;15.24;77.98;95549.38;5088655;28;20197;-71
2023/08/28 07:26:50;;;;;;;5.50;4.20;;;;;;;15.10;78.72;95568.06;5088511;28;20512;-70
2023/08/28 07:29:15;;;;;;;5.03;4.40;;;;;;;15.03;79.16;95575.59;5087928;28;20173;-69
2023/08/28 07:31:40;;;;;;;6.30;4.63;;;;;;;14.96;79.99;95572.56;5088085;28;20189;-71
2023/08/28 07:34:06;;;;;;;10.60;5.60;;;;;;;15.11;79.21;95573.22;5088129;28;20587;-71
2023/08/28 07:36:31;;;;;;;6.57;4.70;;;;;;;14.98;79.13;95564.53;5088266;28;20244;-71
2023/08/28 07:38:57;;;;;;;5.97;4.50;;;;;;;14.95;79.69;95581.47;5087759;28;20181;-70
2023/08/28 07:41:22;;;;;;;12.63;5.50;;;;;;;14.98;79.46;95581.22;5088044;28;21030;-71
2023/08/28 07:43:48;;;;;;;9.27;5.93;;;;;;;15.15;79.43;95581.78;5087581;28;20248;-71
2023/08/28 07:46:13;;;;;;;14.90;5.50;;;;;;;15.13;79.00;95579.22;5088250;28;20221;-69
2023/08/28 07:48:40;;;;;;;9.40;5.17;;;;;;;15.11;78.89;95585.59;5088073;28;20177;-68
2023/08/28 07:51:05;;;;;;;18.47;6.50;;;;;;;15.21;78.62;95594.50;5088233;28;20276;-69
2023/08/28 07:53:30;;;;;;;21.60;5.80;;;;;;;15.51;77.52;95609.84;5088191;28;20542;-70
2023/08/28 07:55:56;;;;;;;13.30;5.77;;;;;;;15.38;78.36;95619.69;5088264;28;20176;-70
2023/08/28 07:58:21;;;;;;;13.57;5.60;;;;;;;15.25;78.86;95649.66;5087976;28;20512;-71
2023/08/28 08:00:46;;;;;;;7.37;5.27;;;;;;;15.28;78.62;95650.41;5087601;28;20196;-70
2023/08/28 08:03:12;;;;;;;7.10;6.00;;;;;;;15.39;77.86;95632.78;5088241;28;20613;-70
2023/08/28 08:05:37;;;;;;;5.90;5.13;;;;;;;15.04;79.30;95630.13;5087979;28;20182;-71
2023/08/28 08:08:03;;;;;;;5.20;4.27;;;;;;;15.12;79.05;95626.91;5088020;28;20185;-70
2023/08/28 08:10:29;;;;;;;6.47;5.30;;;;;;;15.25;78.58;95619.75;5087969;28;20174;-70
2023/08/28 08:12:54;;;;;;;4.90;4.40;;;;;;;15.24;78.19;95639.22;5099995;28;20478;-69
2023/08/28 08:15:21;;;;;;;6.20;5.43;;;;;;;14.94;79.72;95639.69;5112044;28;20346;-69
2023/08/28 08:17:46;;;;;;;19.00;6.40;;;;;;;15.16;79.06;95641.59;5105388;28;20661;-70
2023/08/28 08:20:12;;;;;;;6.83;5.17;;;;;;;15.33;78.18;95637.69;5100573;28;20486;-72
2023/08/28 08:22:39;;;;;;;6.83;4.50;;;;;;;15.05;79.06;95629.19;5096015;28;20694;-71
2023/08/28 08:25:05;;;;;;;6.93;5.20;;;;;;;15.13;79.72;95632.09;5095608;28;20399;-70
2023/08/28 08:27:31;;;;;;;6.13;4.90;;;;;;;15.02;79.90;95627.63;5088134;28;21057;-71
2023/08/28 08:29:56;;;;;;;9.27;5.47;;;;;;;15.18;79.66;95629.94;5087487;28;20415;-71
2023/08/28 08:32:21;;;;;;;5.70;5.20;;;;;;;15.32;77.98;95628.91;5087762;28;20201;-71
2023/08/28 08:34:47;;;;;;;6.30;5.00;;;;;;;15.14;80.10;95633.78;5087978;28;20183;-72
2023/08/28 08:37:13;;;;;;;7.00;5.70;;;;;;;14.97;80.91;95628.91;5087949;28;20169;-71
2023/08/28 08:39:38;;;;;;;8.73;5.80;;;;;;;15.01;81.20;95631.19;5087350;28;20628;-68
2023/08/28 08:42:04;;;;;;;11.90;5.70;;;;;;;15.11;80.64;95636.66;5087153;28;20242;-69
2023/08/28 08:44:30;;;;;;;4.73;4.33;;;;;;;15.16;79.79;95638.94;5087575;28;20230;-71
2023/08/28 08:46:56;;;;;;;6.43;5.13;;;;;;;14.98;81.13;95638.53;5087949;28;20169;-71
2023/08/28 08:49:25;;;;;;;5.27;4.33;;;;;;;15.31;79.48;95645.75;5087341;28;20921;-71
2023/08/28 08:51:53;;;;;;;5.03;4.53;;;;;;;15.13;80.15;95653.22;5087679;28;20440;-71
2023/08/28 08:54:25;;;;;;;6.13;5.10;;;;;;;15.37;79.61;95661.13;5087766;28;20455;-69
2023/08/28 08:56:54;;;;;;;5.63;4.80;;;;;;;15.16;80.23;95655.63;5091548;28;20790;-71
2023/08/28 08:59:21;;;;;;;8.93;5.50;;;;;;;15.38;79.42;95651.41;5090926;28;20408;-71
2023/08/28 09:01:47;;;;;;;8.13;4.33;;;;;;;15.43;78.62;95641.34;5091013;28;20514;-71
2023/08/28 09:04:13;;;;;;;5.90;4.20;;;;;;;15.40;78.73;95625.69;5091131;28;20952;-70
2023/08/28 09:06:40;;;;;;;6.37;4.23;;;;;;;15.51;78.68;95616.94;5091450;28;20485;-67
2023/08/28 09:09:08;;;;;;;6.80;4.97;;;;;;;15.62;78.92;95616.97;5090661;28;20252;-70
2023/08/28 09:11:36;;;;;;;8.33;4.43;;;;;;;15.64;78.77;95615.06;5090858;28;20442;-70
2023/08/28 09:14:02;;;;;;;12.47;4.97;;;;;;;15.71;79.00;95595.16;5090642;28;20450;-70
2023/08/28 09:16:27;;;;;;;4.80;4.30;;;;;;;15.60;79.14;95584.53;5090799;28;20419;-70
2023/08/28 09:18:53;;;;;;;5.30;4.30;;;;;;;15.83;78.05;95577.50;5090631;28;20264;-70
2023/08/28 09:21:18;;;;;;;7.47;4.37;;;;;;;15.63;78.61;95571.88;5090839;28;20190;-70
2023/08/28 09:23:46;;;;;;;6.80;4.47;;;;;;;15.51;78.88;95564.06;5105874;28;20252;-70
2023/08/28 09:26:22;;;;;;;15.47;4.53;;;;;;;15.83;77.83;95561.63;5095004;28;20169;-69
2023/08/28 09:29:02;;;;;;;14.13;4.97;;;;;;;16.04;77.61;95559.09;5090940;28;20760;-70
2023/08/28 09:31:35;;;;;;;8.47;3.90;;;;;;;16.13;76.43;95554.84;5091240;28;20427;-72
2023/08/28 09:34:03;;;;;;;12.43;4.20;;;;;;;16.20;76.11;95546.28;5090842;28;20458;-71
2023/08/28 09:36:32;;;;;;;7.83;3.87;;;;;;;16.06;77.53;95541.25;5090984;28;20818;-70
2023/08/28 09:39:03;;;;;;;5.83;3.53;;;;;;;15.89;77.66;95550.53;5090678;28;20411;-69
2023/08/28 09:41:49;;;;;;;6.70;3.20;;;;;;;15.81;78.16;95542.38;5090596;28;20427;-69
2023/08/28 09:44:16;;;;;;;6.90;3.87;;;;;;;16.07;76.05;95533.22;5090928;28;20880;-69
2023/08/28 09:46:43;;;;;;;4.00;3.40;;;;;;;15.80;77.83;95530.94;5090697;28;20487;-69
2023/08/28 09:49:10;;;;;;;5.10;3.87;;;;;;;16.18;75.84;95513.84;5088686;28;20418;-69
2023/08/28 09:51:48;;;;;;;4.63;3.37;;;;;;;16.05;76.97;95503.38;5090204;28;20420;-70
2023/08/28 09:54:15;;;;;;;4.07;3.67;;;;;;;16.13;76.58;95502.75;5090401;28;20458;-71
2023/08/28 09:56:42;;;;;;;4.90;4.20;;;;;;;16.41;77.04;95505.81;5090296;28;20470;-70
2023/08/28 09:59:10;;;;;;;4.43;3.87;;;;;;;16.50;75.27;95502.41;5090120;28;20408;-69
2023/08/28 10:01:37;;;;;;;6.23;4.30;;;;;;;16.57;74.68;95486.88;5089858;28;20427;-71
2023/08/28 10:04:05;;;;;;;24.90;9.27;;;;;;;16.32;75.43;95488.03;5089771;28;20404;-71
2023/08/28 10:06:34;;;;;;;6.90;3.57;;;;;;;16.09;75.87;95501.34;5089853;28;20403;-71
2023/08/28 10:09:00;;;;;;;4.37;3.97;;;;;;;15.99;75.22;95493.28;5089617;28;20407;-71
2023/08/28 10:11:46;;;;;;;8.60;3.93;;;;;;;16.19;75.77;95496.13;5089767;28;20419;-70
2023/08/28 10:14:13;;;;;;;14.43;5.50;;;;;;;16.20;75.05;95500.44;5089665;28;20459;-72
2023/08/28 10:16:46;;;;;;;4.80;3.60;;;;;;;16.22;73.68;95498.53;5090139;28;20435;-70
2023/08/28 10:19:25;;;;;;;8.60;3.67;;;;;;;16.37;73.44;95493.78;5089749;28;20822;-72
2023/08/28 10:21:51;;;;;;;4.03;3.63;;;;;;;16.16;74.12;95488.41;5089624;28;20459;-69
2023/08/28 10:24:18;;;;;;;3.73;3.33;;;;;;;16.05;74.28;95491.94;5089873;28;20774;-69
2023/08/28 10:26:46;;;;;;;4.07;3.10;;;;;;;16.08;74.05;95486.41;5088524;28;20464;-71
2023/08/28 10:29:14;;;;;;;5.10;3.10;;;;;;;15.88;74.62;95494.13;5090061;28;20900;-72
2023/08/28 10:31:41;;;;;;;3.07;2.77;;;;;;;15.92;73.50;95486.81;5089721;28;20435;-69
2023/08/28 10:34:07;;;;;;;4.60;3.23;;;;;;;16.09;73.30;95475.69;5089809;28;20455;-72
2023/08/28 10:36:33;;;;;;;4.10;3.13;;;;;;;16.09;74.16;95467.75;5089864;28;20408;-72
2023/08/28 10:39:03;;;;;;;5.27;3.10;;;;;;;16.49;72.30;95455.72;5089309;28;21350;-71
2023/08/28 10:41:29;;;;;;;6.60;3.20;;;;;;;16.41;71.91;95461.63;5089339;28;20420;-71
2023/08/28 10:43:59;;;;;;;4.13;2.80;;;;;;;16.29;73.21;95460.84;5089589;28;20831;-73
2023/08/28 10:46:28;;;;;;;4.00;3.10;;;;;;;16.23;72.88;95460.53;5089439;28;20395;-71
2023/08/28 10:48:58;;;;;;;3.30;3.00;;;;;;;16.21;72.75;95457.97;5088949;28;20454;-70
2023/08/28 10:51:37;;;;;;;6.73;2.90;;;;;;;16.05;72.94;95461.03;5089085;28;20449;-68
2023/08/28 10:54:04;;;;;;;4.37;3.00;;;;;;;16.07;73.57;95452.97;5077543;28;20830;-71
2023/08/28 10:56:53;;;;;;;6.60;2.77;;;;;;;16.22;71.16;95449.06;5087643;28;20423;-70
2023/08/28 10:59:26;;;;;;;6.27;3.93;;;;;;;18.53;68.65;95439.91;5068293;28;20621;-72
2023/08/28 11:01:56;;;;;;;3.13;1.87;;;;;;;19.62;62.62;95448.41;5086237;28;20485;-71
2023/08/28 11:04:22;;;;;;;4.70;2.87;;;;;;;19.02;62.34;95448.72;5089337;28;20572;-71
2023/08/28 11:06:48;;;;;;;6.83;3.40;;;;;;;18.51;62.79;95453.31;5088637;28;20423;-72
2023/08/28 11:09:26;;;;;;;3.50;2.60;;;;;;;18.90;63.38;95439.19;5083495;28;20426;-71
2023/08/28 11:15:00;;;;;;;3.87;3.10;;;;;;;19.44;61.07;95437.66;5403782;22;20502;-71
2023/08/28 11:17:25;;;;;;;4.43;2.77;;;;;;;19.58;60.89;95433.69;5012017;28;20518;-73
2023/08/28 11:19:56;;;;;;;3.23;2.23;;;;;;;19.41;59.07;95430.81;5065910;28;20471;-72
2023/08/28 11:22:40;;;;;;;2.93;2.40;;;;;;;18.96;61.17;95420.03;5058272;28;20292;-72
2023/08/28 11:25:11;;;;;;;3.70;2.10;;;;;;;19.21;61.13;95424.72;5062372;28;21060;-70
2023/08/28 11:27:56;;;;;;;7.53;2.40;;;;;;;19.60;59.92;95423.75;5061897;28;20439;-72
2023/08/28 11:30:22;;;;;;;3.67;2.60;;;;;;;19.61;59.36;95426.28;5062932;28;20428;-70
2023/08/28 11:32:51;;;;;;;4.63;2.40;;;;;;;18.75;60.75;95426.31;5060493;28;20996;-73
2023/08/28 11:35:17;;;;;;;3.43;2.47;;;;;;;18.34;61.75;95432.75;5062465;28;20185;-72